createdAt,value
2018-12-11T00:01:59.181Z,3.30
2018-12-11T00:04:27.323Z,3.70
2018-12-11T00:06:55.514Z,3.70
2018-12-11T00:09:23.656Z,3.13
2018-12-11T00:11:51.844Z,4.10
2018-12-11T00:14:19.951Z,3.37
2018-12-11T00:16:48.097Z,3.27
2018-12-11T00:19:16.197Z,3.27
2018-12-11T00:21:44.362Z,4.27
2018-12-11T00:24:12.551Z,3.03
2018-12-11T00:26:40.673Z,3.30
2018-12-11T00:29:08.795Z,3.00
2018-12-11T00:31:37.072Z,3.53
2018-12-11T00:34:05.161Z,3.10
2018-12-11T00:36:33.286Z,3.83
2018-12-11T00:39:01.411Z,4.23
2018-12-11T00:41:29.549Z,3.30
2018-12-11T00:43:57.707Z,3.47
2018-12-11T00:46:25.913Z,2.87
2018-12-11T00:48:54.074Z,3.57
2018-12-11T00:51:22.235Z,2.87
2018-12-11T00:53:50.353Z,3.30
2018-12-11T00:56:18.458Z,3.10
2018-12-11T00:58:46.552Z,4.23
2018-12-11T01:01:14.663Z,2.97
2018-12-11T01:03:42.773Z,3.67
2018-12-11T01:06:10.972Z,3.87
2018-12-11T01:08:39.149Z,3.60
2018-12-11T01:11:07.361Z,3.47
2018-12-11T01:13:35.484Z,3.30
2018-12-11T01:16:03.672Z,3.23
2018-12-11T01:18:31.842Z,3.27
2018-12-11T01:20:59.939Z,3.03
2018-12-11T01:23:28.164Z,4.30
2018-12-11T01:25:56.268Z,2.87
2018-12-11T01:28:24.365Z,3.00
2018-12-11T01:30:52.501Z,3.27
2018-12-11T01:33:20.605Z,3.07
2018-12-11T01:35:48.821Z,4.23
2018-12-11T01:38:17.041Z,3.00
2018-12-11T01:40:45.186Z,2.87
2018-12-11T01:43:13.369Z,2.60
2018-12-11T01:45:41.472Z,2.97
2018-12-11T01:48:09.617Z,2.73
2018-12-11T01:50:37.716Z,3.63
2018-12-11T01:53:05.832Z,2.90
2018-12-11T01:55:34.034Z,3.27
2018-12-11T01:58:02.207Z,2.90
2018-12-11T02:00:30.407Z,2.93
2018-12-11T02:02:58.538Z,2.83
2018-12-11T02:05:26.646Z,3.13
2018-12-11T02:07:54.820Z,3.40
2018-12-11T02:10:22.995Z,3.50
2018-12-11T02:12:51.135Z,3.43
2018-12-11T02:15:19.254Z,3.03
2018-12-11T02:17:47.347Z,3.37
2018-12-11T02:20:15.460Z,3.10
2018-12-11T02:22:43.572Z,3.07
2018-12-11T02:25:11.674Z,3.03
2018-12-11T02:27:39.760Z,3.63
2018-12-11T02:30:07.892Z,3.10
2018-12-11T02:32:36.028Z,2.80
2018-12-11T02:35:04.287Z,3.07
2018-12-11T02:37:32.407Z,3.50
2018-12-11T02:40:00.565Z,3.70
2018-12-11T02:42:28.658Z,3.33
2018-12-11T02:44:56.811Z,3.07
2018-12-11T02:47:24.950Z,3.33
2018-12-11T02:49:53.056Z,2.90
2018-12-11T02:52:21.224Z,4.10
2018-12-11T02:54:49.400Z,3.43
2018-12-11T02:57:17.514Z,3.30
2018-12-11T02:59:45.726Z,2.90
2018-12-11T03:02:13.916Z,3.40
2018-12-11T03:04:42.104Z,2.90
2018-12-11T03:07:10.224Z,3.53
2018-12-11T03:09:38.305Z,2.67
2018-12-11T03:12:06.580Z,3.43
2018-12-11T03:14:34.803Z,3.30
2018-12-11T03:17:02.960Z,2.93
2018-12-11T03:19:31.625Z,3.00
2018-12-11T03:21:59.740Z,3.10
2018-12-11T03:24:27.902Z,3.00
2018-12-11T03:26:56.007Z,2.83
2018-12-11T03:29:24.143Z,2.70
2018-12-11T03:31:52.287Z,2.90
2018-12-11T03:34:20.390Z,2.70
2018-12-11T03:36:48.533Z,2.93
2018-12-11T03:39:16.626Z,2.73
2018-12-11T03:41:44.725Z,2.70
2018-12-11T03:44:12.857Z,2.90
2018-12-11T03:46:41.045Z,2.97
2018-12-11T03:49:09.217Z,2.73
2018-12-11T03:51:37.400Z,2.70
2018-12-11T03:54:05.540Z,3.00
2018-12-11T03:56:33.660Z,2.70
2018-12-11T03:59:01.831Z,2.70
2018-12-11T04:01:29.973Z,2.77
2018-12-11T04:03:58.060Z,2.73
2018-12-11T04:06:26.240Z,2.83
2018-12-11T04:08:54.401Z,3.10
2018-12-11T04:11:22.578Z,3.03
2018-12-11T04:13:50.765Z,3.73
2018-12-11T04:16:18.903Z,2.97
2018-12-11T04:18:46.993Z,3.17
2018-12-11T04:21:15.171Z,2.47
2018-12-11T04:23:43.345Z,2.63
2018-12-11T04:26:11.447Z,2.63
2018-12-11T04:28:40.744Z,2.60
2018-12-11T04:31:08.876Z,2.80
2018-12-11T04:33:40.187Z,2.53
2018-12-11T04:36:08.307Z,2.40
2018-12-11T04:38:36.401Z,2.53
2018-12-11T04:41:04.558Z,2.67
2018-12-11T04:43:32.739Z,2.77
2018-12-11T04:46:00.897Z,3.27
2018-12-11T04:48:29.153Z,2.47
2018-12-11T04:50:57.388Z,2.87
2018-12-11T04:53:25.544Z,2.70
2018-12-11T04:55:53.676Z,4.53
2018-12-11T04:58:21.800Z,2.60
2018-12-11T05:00:49.953Z,2.97
2018-12-11T05:03:18.097Z,2.83
2018-12-11T05:05:46.204Z,2.87
2018-12-11T05:08:15.975Z,2.60
2018-12-11T05:10:44.754Z,2.80
2018-12-11T05:13:12.890Z,2.50
2018-12-11T05:15:41.018Z,2.83
2018-12-11T05:18:09.204Z,3.10
2018-12-11T05:20:37.333Z,2.67
2018-12-11T05:23:05.461Z,2.70
2018-12-11T05:25:33.608Z,2.57
2018-12-11T05:28:01.709Z,3.70
2018-12-11T05:30:29.853Z,3.53
2018-12-11T05:32:58.065Z,2.90
2018-12-11T05:35:26.210Z,2.70
2018-12-11T05:37:54.301Z,2.77
2018-12-11T05:40:22.456Z,2.57
2018-12-11T05:42:50.568Z,2.37
2018-12-11T05:45:18.701Z,2.70
2018-12-11T05:47:46.863Z,3.50
2018-12-11T05:50:14.987Z,2.80
2018-12-11T05:52:43.103Z,3.70
2018-12-11T05:55:11.209Z,2.77
2018-12-11T05:57:39.358Z,2.67
2018-12-11T06:00:08.306Z,3.00
2018-12-11T06:02:36.474Z,2.93
2018-12-11T06:05:04.961Z,2.60
2018-12-11T06:07:34.912Z,2.90
2018-12-11T06:10:03.005Z,3.33
2018-12-11T06:12:31.137Z,3.00
2018-12-11T06:14:59.229Z,3.60
2018-12-11T06:17:27.490Z,2.93
2018-12-11T06:19:55.753Z,3.20
2018-12-11T06:22:24.150Z,3.00
2018-12-11T06:24:52.313Z,3.23
2018-12-11T06:27:20.445Z,2.73
2018-12-11T06:29:48.609Z,3.00
2018-12-11T06:32:16.811Z,2.87
2018-12-11T06:34:44.966Z,3.57
2018-12-11T06:37:14.059Z,3.00
2018-12-11T06:39:42.204Z,2.57
2018-12-11T06:42:10.306Z,2.47
2018-12-11T06:44:38.500Z,3.00
2018-12-11T06:47:06.653Z,3.10
2018-12-11T06:49:34.860Z,3.07
2018-12-11T06:52:03.002Z,3.07
2018-12-11T06:54:31.200Z,3.10
2018-12-11T06:56:59.337Z,3.67
2018-12-11T06:59:27.439Z,3.23
2018-12-11T07:01:55.681Z,2.70
2018-12-11T07:04:23.862Z,3.07
2018-12-11T07:06:52.061Z,3.57
2018-12-11T07:09:20.193Z,3.10
2018-12-11T07:11:48.289Z,3.53
2018-12-11T07:14:16.456Z,2.90
2018-12-11T07:16:44.668Z,3.40
2018-12-11T07:19:12.838Z,3.13
2018-12-11T07:21:41.027Z,3.30
2018-12-11T07:24:09.144Z,3.67
2018-12-11T07:26:37.330Z,3.50
2018-12-11T07:29:05.422Z,3.23
2018-12-11T07:31:33.571Z,3.83
2018-12-11T07:34:01.673Z,2.70
2018-12-11T07:36:29.801Z,2.93
2018-12-11T07:38:57.991Z,2.67
2018-12-11T07:41:26.190Z,2.93
2018-12-11T07:43:54.337Z,2.83
2018-12-11T07:46:22.523Z,2.80
2018-12-11T07:48:50.623Z,2.80
2018-12-11T07:51:18.733Z,3.23
2018-12-11T07:53:46.945Z,3.13
2018-12-11T07:56:15.100Z,3.30
2018-12-11T07:58:43.201Z,3.63
2018-12-11T08:01:11.357Z,3.30
2018-12-11T08:03:39.523Z,2.90
2018-12-11T08:06:07.622Z,3.00
2018-12-11T08:08:35.741Z,3.40
2018-12-11T08:11:03.865Z,3.03
2018-12-11T08:13:32.035Z,3.57
2018-12-11T08:16:00.160Z,3.50
2018-12-11T08:18:28.270Z,3.63
2018-12-11T08:20:56.429Z,3.40
2018-12-11T08:23:24.645Z,3.80
2018-12-11T08:25:52.813Z,3.13
2018-12-11T08:28:20.934Z,3.17
2018-12-11T08:30:49.129Z,3.30
2018-12-11T08:33:17.293Z,3.43
2018-12-11T08:35:45.400Z,3.20
2018-12-11T08:38:13.557Z,4.10
2018-12-11T08:40:41.653Z,3.50
2018-12-11T08:43:09.758Z,3.40
2018-12-11T08:45:37.873Z,3.07
2018-12-11T08:48:06.033Z,3.13
2018-12-11T08:50:34.209Z,3.20
2018-12-11T08:53:02.390Z,3.73
2018-12-11T08:55:30.556Z,3.40
2018-12-11T08:57:58.708Z,3.37
2018-12-11T09:00:26.899Z,3.37
2018-12-11T09:02:55.085Z,3.37
2018-12-11T09:05:23.254Z,3.20
2018-12-11T09:07:51.835Z,2.90
2018-12-11T09:10:19.945Z,2.70
2018-12-11T09:12:48.097Z,3.00
2018-12-11T09:15:16.289Z,2.80
2018-12-11T09:17:44.480Z,3.10
2018-12-11T09:20:12.601Z,2.90
2018-12-11T09:22:40.764Z,2.80
2018-12-11T09:25:08.894Z,2.80
2018-12-11T09:27:37.036Z,2.60
2018-12-11T09:30:05.792Z,3.60
2018-12-11T09:34:03.392Z,3.50
2018-12-11T09:36:31.637Z,2.60
2018-12-11T09:38:59.846Z,3.13
2018-12-11T09:41:27.963Z,3.10
2018-12-11T09:43:56.076Z,3.27
2018-12-11T09:46:24.182Z,3.00
2018-12-11T09:48:52.461Z,2.90
2018-12-11T09:51:20.629Z,2.93
2018-12-11T09:53:48.809Z,3.40
2018-12-11T09:56:16.964Z,2.53
2018-12-11T09:58:45.156Z,3.00
2018-12-11T10:01:13.300Z,3.30
2018-12-11T10:03:41.544Z,2.77
2018-12-11T10:06:09.769Z,2.70
2018-12-11T10:08:37.967Z,3.00
2018-12-11T10:11:06.121Z,2.87
2018-12-11T10:13:34.253Z,2.60
2018-12-11T10:16:02.453Z,2.70
2018-12-11T10:18:30.580Z,2.73
2018-12-11T10:24:26.652Z,3.00
2018-12-11T10:26:54.967Z,2.37
2018-12-11T10:29:23.082Z,2.53
2018-12-11T10:31:51.298Z,2.50
2018-12-11T10:34:19.471Z,2.70
2018-12-11T10:36:47.671Z,2.97
2018-12-11T10:39:15.816Z,2.53
2018-12-11T10:41:43.922Z,2.80
2018-12-11T10:44:12.021Z,2.70
2018-12-11T10:46:40.145Z,2.43
2018-12-11T10:49:08.291Z,2.83
2018-12-11T10:51:36.401Z,3.00
2018-12-11T10:54:04.568Z,2.93
2018-12-11T10:56:32.705Z,2.47
2018-12-11T10:59:00.824Z,2.90
2018-12-11T11:01:31.013Z,2.50
2018-12-11T11:03:59.326Z,2.20
2018-12-11T11:06:27.485Z,2.23
2018-12-11T11:08:55.615Z,2.40
2018-12-11T11:11:23.796Z,2.37
2018-12-11T11:13:52.025Z,2.50
2018-12-11T11:16:20.184Z,3.30
2018-12-11T11:18:48.367Z,2.60
2018-12-11T11:21:16.476Z,2.80
2018-12-11T11:23:45.266Z,2.63
2018-12-11T11:26:13.459Z,2.93
2018-12-11T11:28:41.941Z,2.63
2018-12-11T11:31:10.058Z,2.57
2018-12-11T11:33:38.176Z,3.00
2018-12-11T11:36:06.264Z,2.97
2018-12-11T11:38:34.412Z,3.40
2018-12-11T11:41:02.525Z,2.80
2018-12-11T11:43:30.645Z,2.90
2018-12-11T11:45:58.862Z,2.67
2018-12-11T11:48:27.003Z,2.60
2018-12-11T11:50:55.107Z,3.17
2018-12-11T11:53:23.317Z,2.70
2018-12-11T11:55:51.466Z,3.43
2018-12-11T11:58:19.589Z,2.80
2018-12-11T12:00:47.722Z,2.20
2018-12-11T12:03:15.834Z,2.87
2018-12-11T12:05:43.951Z,2.57
2018-12-11T12:08:12.135Z,3.43
2018-12-11T12:10:40.258Z,3.37
2018-12-11T12:13:08.443Z,2.60
2018-12-11T12:15:36.658Z,2.70
2018-12-11T12:18:04.788Z,2.50
2018-12-11T12:20:32.899Z,3.00
2018-12-11T12:23:01.137Z,2.80
2018-12-11T12:25:29.248Z,2.90
2018-12-11T12:27:57.415Z,3.07
2018-12-11T12:30:27.426Z,2.80
2018-12-11T12:32:55.618Z,3.10
2018-12-11T12:35:23.742Z,2.83
2018-12-11T12:37:51.953Z,3.90
2018-12-11T12:40:20.082Z,2.90
2018-12-11T12:42:48.299Z,3.40
2018-12-11T12:45:16.430Z,2.50
2018-12-11T12:47:44.537Z,2.87
2018-12-11T12:50:12.737Z,2.63
2018-12-11T12:52:40.889Z,2.80
2018-12-11T12:55:09.093Z,3.27
2018-12-11T12:57:37.233Z,3.40
2018-12-11T13:00:05.482Z,3.00
2018-12-11T13:02:33.677Z,2.97
2018-12-11T13:05:01.821Z,2.50
2018-12-11T13:07:29.925Z,3.00
2018-12-11T13:09:58.050Z,2.90
2018-12-11T13:12:26.176Z,2.97
2018-12-11T13:14:54.261Z,2.43
2018-12-11T13:17:22.415Z,3.30
2018-12-11T13:19:50.562Z,2.90
2018-12-11T13:22:18.709Z,3.10
2018-12-11T13:24:46.804Z,2.70
2018-12-11T13:27:15.134Z,2.60
2018-12-11T13:29:43.304Z,3.30
2018-12-11T13:32:11.552Z,2.80
2018-12-11T13:34:39.713Z,3.20
2018-12-11T13:37:08.013Z,2.97
2018-12-11T13:39:36.217Z,2.77
2018-12-11T13:42:05.204Z,2.57
2018-12-11T13:44:33.473Z,2.90
2018-12-11T13:47:01.969Z,3.30
2018-12-11T13:49:30.093Z,2.57
2018-12-11T13:51:58.402Z,3.00
2018-12-11T13:54:26.529Z,2.37
2018-12-11T13:56:54.641Z,2.83
2018-12-11T13:59:22.814Z,2.53
2018-12-11T14:01:50.984Z,2.47
2018-12-11T14:04:19.188Z,2.43
2018-12-11T14:06:47.469Z,2.73
2018-12-11T14:09:20.993Z,2.63
2018-12-11T14:11:49.096Z,3.50
2018-12-11T14:14:17.296Z,2.63
2018-12-11T14:16:45.462Z,2.70
2018-12-11T14:19:13.601Z,2.47
2018-12-11T14:21:41.805Z,3.47
2018-12-11T14:24:11.166Z,2.60
2018-12-11T14:26:39.395Z,2.47
2018-12-11T14:29:07.555Z,2.63
2018-12-11T14:31:35.751Z,2.77
2018-12-11T14:34:04.065Z,3.03
2018-12-11T14:36:32.689Z,2.87
2018-12-11T14:39:00.810Z,2.40
2018-12-11T14:41:28.920Z,2.60
2018-12-11T14:43:57.227Z,2.27
2018-12-11T14:46:25.379Z,3.10
2018-12-11T14:48:53.481Z,2.50
2018-12-11T14:51:21.630Z,2.50
2018-12-11T14:53:49.924Z,2.40
2018-12-11T14:56:18.057Z,2.50
2018-12-11T14:58:46.163Z,3.80
2018-12-11T15:01:14.350Z,3.07
2018-12-11T15:03:42.486Z,2.87
2018-12-11T15:06:10.689Z,3.17
2018-12-11T15:08:38.844Z,2.67
2018-12-11T15:11:07.020Z,2.87
2018-12-11T15:13:35.160Z,2.87
2018-12-11T15:16:03.281Z,3.17
2018-12-11T15:18:31.453Z,2.90
2018-12-11T15:20:59.577Z,2.57
2018-12-11T15:23:27.748Z,3.07
2018-12-11T15:25:55.876Z,2.60
2018-12-11T15:28:24.012Z,2.70
2018-12-11T15:30:56.607Z,2.63
2018-12-11T15:33:24.709Z,3.00
2018-12-11T15:35:52.878Z,2.87
2018-12-11T15:38:21.034Z,3.40
2018-12-11T15:40:49.166Z,3.00
2018-12-11T15:43:17.494Z,3.57
2018-12-11T15:45:45.699Z,2.50
2018-12-11T15:48:14.047Z,2.50
2018-12-11T15:50:43.096Z,3.03
2018-12-11T15:53:11.431Z,2.83
2018-12-11T15:55:39.555Z,3.00
2018-12-11T15:58:07.689Z,3.00
2018-12-11T16:00:37.747Z,2.90
2018-12-11T16:03:07.318Z,3.43
2018-12-11T16:05:38.318Z,3.33
2018-12-11T16:08:12.577Z,2.73
2018-12-11T16:10:44.777Z,3.23
2018-12-11T16:13:30.432Z,3.10
2018-12-11T16:16:09.150Z,3.07
2018-12-11T16:18:39.601Z,3.67
2018-12-11T16:21:11.655Z,3.50
2018-12-11T16:23:40.418Z,4.00
2018-12-11T16:26:09.821Z,3.70
2018-12-11T16:28:40.899Z,4.13
2018-12-11T16:31:12.677Z,3.53
2018-12-11T16:33:45.380Z,3.33
2018-12-11T16:36:16.080Z,4.10
2018-12-11T16:38:49.332Z,3.73
2018-12-11T16:41:22.177Z,3.10
2018-12-11T16:43:57.392Z,3.57
2018-12-11T16:46:29.493Z,4.23
2018-12-11T16:49:02.537Z,3.33
2018-12-11T16:51:34.377Z,3.97
2018-12-11T16:54:07.401Z,3.63
2018-12-11T16:56:42.315Z,3.50
2018-12-11T16:59:14.353Z,3.40
2018-12-11T17:01:52.250Z,3.10
2018-12-11T17:09:56.521Z,3.60
2018-12-11T17:12:30.623Z,3.40
2018-12-11T17:15:03.467Z,3.07
2018-12-11T17:17:43.318Z,3.20
2018-12-11T17:20:22.028Z,3.40
2018-12-11T17:22:50.145Z,3.20
2018-12-11T17:25:18.251Z,3.03
2018-12-11T17:27:46.382Z,2.93
2018-12-11T17:30:14.575Z,4.00
2018-12-11T17:32:42.782Z,3.93
2018-12-11T17:35:10.954Z,3.90
2018-12-11T17:37:39.305Z,3.83
2018-12-11T17:40:07.531Z,3.20
2018-12-11T17:42:35.665Z,3.13
2018-12-11T17:45:03.805Z,3.57
2018-12-11T17:47:31.990Z,3.93
2018-12-11T17:50:00.424Z,3.00
2018-12-11T17:52:28.621Z,3.10
2018-12-11T17:54:56.791Z,3.27
2018-12-11T17:57:25.003Z,3.37
2018-12-11T17:59:53.133Z,3.10
2018-12-11T18:02:26.469Z,3.60
2018-12-11T18:04:54.944Z,3.67
2018-12-11T18:07:23.054Z,3.70
2018-12-11T18:09:51.214Z,2.90
2018-12-11T18:12:19.460Z,3.50
2018-12-11T18:14:47.576Z,3.67
2018-12-11T18:17:15.721Z,4.17
2018-12-11T18:19:43.857Z,3.10
2018-12-11T18:22:11.944Z,3.20
2018-12-11T18:24:40.053Z,3.47
2018-12-11T18:27:08.183Z,3.50
2018-12-11T18:29:36.290Z,3.30
2018-12-11T18:32:04.480Z,3.20
2018-12-11T18:34:34.676Z,3.17
2018-12-11T18:37:02.760Z,3.20
2018-12-11T18:39:30.917Z,3.20
2018-12-11T18:41:59.044Z,3.50
2018-12-11T18:44:27.153Z,3.20
2018-12-11T18:46:55.285Z,3.30
2018-12-11T18:49:23.432Z,3.10
2018-12-11T18:51:51.530Z,2.90
2018-12-11T18:54:19.662Z,3.27
2018-12-11T18:56:47.826Z,3.30
2018-12-11T18:59:16.033Z,3.33
2018-12-11T19:01:44.277Z,4.43
2018-12-11T19:04:12.437Z,4.73
2018-12-11T19:06:40.635Z,4.10
2018-12-11T19:09:08.820Z,4.90
2018-12-11T19:11:36.961Z,4.63
2018-12-11T19:14:05.183Z,4.57
2018-12-11T19:16:33.363Z,4.87
2018-12-11T19:19:01.499Z,4.90
2018-12-11T19:21:29.650Z,4.70
2018-12-11T19:24:06.528Z,4.93
2018-12-11T19:26:34.758Z,5.40
2018-12-11T19:29:02.899Z,4.93
2018-12-11T19:31:31.200Z,5.03
2018-12-11T19:33:59.424Z,5.40
2018-12-11T19:36:27.530Z,5.40
2018-12-11T19:38:55.692Z,5.73
2018-12-11T19:41:23.888Z,5.13
2018-12-11T19:43:52.049Z,4.67
2018-12-11T19:46:20.158Z,5.00
2018-12-11T19:48:48.265Z,5.57
2018-12-11T19:51:16.386Z,5.10
2018-12-11T19:53:44.560Z,5.37
2018-12-11T19:56:12.825Z,5.73
2018-12-11T19:58:41.238Z,5.50
2018-12-11T20:01:09.499Z,5.33
2018-12-11T20:03:37.782Z,5.43
2018-12-11T20:06:06.045Z,5.07
2018-12-11T20:08:34.210Z,5.60
2018-12-11T20:11:02.382Z,6.43
2018-12-11T20:13:30.568Z,4.57
2018-12-11T20:15:58.714Z,4.80
2018-12-11T20:18:26.946Z,4.97
2018-12-11T20:20:55.069Z,5.07
2018-12-11T20:23:23.198Z,5.00
2018-12-11T20:25:51.340Z,5.90
2018-12-11T20:28:19.485Z,5.90
2018-12-11T20:30:47.657Z,5.80
2018-12-11T20:33:16.085Z,5.80
2018-12-11T20:35:44.229Z,5.97
2018-12-11T20:38:12.433Z,5.60
2018-12-11T20:40:40.574Z,5.47
2018-12-11T20:43:09.150Z,4.77
2018-12-11T20:45:37.321Z,4.10
2018-12-11T20:48:05.562Z,4.33
2018-12-11T20:50:33.710Z,4.20
2018-12-11T20:53:01.847Z,4.23
2018-12-11T20:55:29.956Z,4.27
2018-12-11T20:57:58.175Z,4.40
2018-12-11T21:00:28.397Z,4.40
2018-12-11T21:02:56.519Z,4.80
2018-12-11T21:05:24.650Z,4.70
2018-12-11T21:07:52.762Z,4.60
2018-12-11T21:10:20.892Z,4.40
2018-12-11T21:12:49.121Z,4.33
2018-12-11T21:15:17.301Z,4.40
2018-12-11T21:17:45.601Z,5.10
2018-12-11T21:20:13.692Z,5.00
2018-12-11T21:22:41.799Z,4.80
2018-12-11T21:25:09.957Z,4.80
2018-12-11T21:27:38.124Z,4.93
2018-12-11T21:30:07.252Z,5.00
2018-12-11T21:32:35.375Z,4.07
2018-12-11T21:35:03.807Z,5.00
2018-12-11T21:37:32.033Z,4.27
2018-12-11T21:40:00.279Z,4.57
2018-12-11T21:42:28.409Z,4.63
2018-12-11T21:44:56.695Z,4.83
2018-12-11T21:47:24.849Z,4.97
2018-12-11T21:49:53.002Z,4.53
2018-12-11T21:52:21.197Z,4.43
2018-12-11T21:54:49.337Z,4.60
2018-12-11T21:57:17.452Z,6.07
2018-12-11T21:59:45.571Z,5.10
2018-12-11T22:02:13.903Z,5.07
2018-12-11T22:04:42.064Z,5.30
2018-12-11T22:07:10.205Z,5.93
2018-12-11T22:09:38.420Z,6.17
2018-12-11T22:12:07.089Z,6.67
2018-12-11T22:14:35.192Z,5.30
2018-12-11T22:17:03.859Z,5.50
2018-12-11T22:19:32.010Z,5.73
2018-12-11T22:22:00.183Z,6.30
2018-12-11T22:24:28.392Z,5.57
2018-12-11T22:26:56.510Z,5.07
2018-12-11T22:29:24.717Z,6.30
2018-12-11T22:31:52.915Z,5.50
2018-12-11T22:34:21.088Z,6.13
2018-12-11T22:36:49.224Z,5.80
2018-12-11T22:39:17.441Z,5.60
2018-12-11T22:41:45.557Z,5.60
2018-12-11T22:44:13.842Z,6.10
2018-12-11T22:46:42.008Z,5.80
2018-12-11T22:49:10.116Z,6.80
2018-12-11T22:51:38.641Z,7.40
2018-12-11T22:54:06.897Z,6.57
2018-12-11T22:56:35.049Z,7.20
2018-12-11T22:59:03.231Z,6.80
2018-12-11T23:01:31.403Z,6.27
2018-12-11T23:03:59.546Z,6.80
2018-12-11T23:06:27.666Z,7.27
2018-12-11T23:08:55.817Z,6.63
2018-12-11T23:11:23.958Z,6.40
2018-12-11T23:13:52.157Z,7.23
2018-12-11T23:16:20.351Z,6.90
2018-12-11T23:18:48.593Z,7.73
2018-12-11T23:21:16.708Z,8.07
2018-12-11T23:23:44.939Z,7.50
2018-12-11T23:26:13.087Z,7.87
2018-12-11T23:28:41.205Z,7.60
2018-12-11T23:31:09.331Z,7.90
2018-12-11T23:33:37.445Z,8.83
2018-12-11T23:36:05.677Z,8.13
2018-12-11T23:38:33.884Z,7.60
2018-12-11T23:41:02.080Z,7.43
2018-12-11T23:43:30.308Z,7.97
2018-12-11T23:45:58.397Z,8.00
2018-12-11T23:48:26.601Z,8.17
2018-12-11T23:50:54.730Z,8.67
2018-12-11T23:53:22.833Z,8.17
2018-12-11T23:55:51.006Z,9.17
2018-12-11T23:58:19.169Z,8.67
